• Join FlightAware (Why Join?)
  • Login
  • US Flag 
12:13AM EDT


 

Airport Tracker/Info


-or-


 

Live Flight TrackerFlight Track Log ✈ N319EE ✈ 09-Oct-2013 ✈ KPWM - KBGM

Flight Track Log - Related Links

Times and Time Zones

All times are in EDT time to prevent confusion due to time zone crossing. See the N319EE flight status page for this flight to view local times or setup timezone preferences in your user account.

Time Position Orientation Groundspeed Altitude Reporting Facility
EDT Latitude Longitude Course Direction KTS MPH feet Rate Location/Type
08:31AM 43.6558 -70.4111 278° West 177 204 3,500  Level Boston Center
08:32AM 43.6675 -70.4797 283° West 177 204 6,100 2,040 Climbing Boston Center
08:33AM 43.6789 -70.5397 285° West 177 204 7,700 1,800 Climbing Boston Center
08:34AM 43.6906 -70.6139 282° West 182 209 9,700 1,620 Climbing Boston Center
08:35AM 43.7039 -70.6794 286° West 182 209 10,900 1,200 Climbing Boston Center
08:36AM 43.7178 -70.7711 282° West 214 246 12,200 1,020 Climbing Boston Center
08:37AM 43.7106 -70.8517 263° West 234 269 13,000 900 Climbing Boston Center
08:38AM 43.6828 -70.9500 249° West 248 285 14,100 960 Climbing Boston Center
08:39AM 43.6567 -71.0339 247° West 253 291 15,000 780 Climbing Boston Center
08:40AM 43.6286 -71.1236 247° West 253 291 15,700 480 Climbing Boston Center
08:41AM 43.5964 -71.2217 246° West 265 305 16,000 120 Climbing Boston Center
08:42AM 43.5642 -71.3228 246° West 283 326 16,000  Level Boston Center
08:43AM 43.5358 -71.4206 248° West 288 331 16,000  Level Boston Center
08:44AM 43.5033 -71.5183 245° Southwest 288 331 16,000  Level Boston Center
08:45AM 43.4728 -71.6161 247° West 288 331 16,000  Level Boston Center
08:46AM 43.4422 -71.7108 246° West 277 319 16,000  Level Boston Center
08:47AM 43.4136 -71.8056 247° West 277 319 16,000  Level Boston Center
08:48AM 43.3808 -71.9003 245° Southwest 277 319 16,000  Level Boston Center
08:49AM 43.3500 -71.9975 246° West 277 319 16,000  Level Boston Center
08:50AM 43.3189 -72.0947 246° West 277 319 16,000  Level Boston Center
08:51AM 43.2881 -72.1947 247° West 277 319 16,000  Level Boston Center
08:52AM 43.2569 -72.2889 246° West 277 319 16,000  Level Boston Center
08:53AM 43.2256 -72.3858 246° West 277 319 16,000  Level Boston Center
08:54AM 43.1922 -72.4856 245° Southwest 277 319 16,000  Level Boston Center
08:55AM 43.1589 -72.5825 245° Southwest 277 319 16,000  Level Boston Center
08:56AM 43.1294 -72.6819 248° West 277 319 16,000  Level Boston Center
08:57AM 43.0981 -72.7728 245° Southwest 282 325 16,000  Level Boston Center
08:58AM 43.0664 -72.8692 246° West 282 325 16,000  Level Boston Center
08:59AM 43.0328 -72.9683 245° Southwest 282 325 16,000  Level Boston Center
09:00AM 42.9969 -73.0647 243° Southwest 282 325 16,000  Level Boston Center
09:01AM 42.9608 -73.1750 246° West 282 325 16,000  Level Boston Center
09:02AM 42.9308 -73.2625 245° Southwest 282 325 16,000  Level Boston Center
09:03AM 42.8947 -73.3697 245° Southwest 282 325 16,000  Level Boston Center
09:04AM 42.8669 -73.4569 247° West 282 325 16,000  Level Boston Center
09:05AM 42.8283 -73.5639 244° Southwest 282 325 16,000  Level Boston Center
09:06AM 42.8003 -73.6483 246° West 282 325 16,000  Level Boston Center
09:07AM 42.7681 -73.7553 248° West 282 325 16,000  Level Boston Center
09:08AM 42.7375 -73.8536 247° West 288 331 16,000  Level Boston Center
09:09AM 42.7156 -73.9547 254° West 288 331 16,000  Level Boston Center
09:10AM 42.6892 -74.0558 250° West 288 331 16,000  Level Boston Center
09:11AM 42.6603 -74.1653 250° West 283 326 16,000  Level Boston Center
09:12AM 42.6381 -74.2578 252° West 288 331 16,000  Level Boston Center
09:13AM 42.6111 -74.3725 252° West 288 331 16,000  Level Boston Center
09:14AM 42.5886 -74.4650 252° West 288 331 16,000  Level Boston Center
09:15AM 42.5617 -74.5769 252° West 288 331 16,000  Level Boston Center
09:16AM 42.5389 -74.6692 251° West 283 326 16,000  Level Boston Center
09:17AM 42.5117 -74.7808 252° West 288 331 16,000 -300 Level Boston Center
09:18AM 42.4867 -74.8783 251° West 288 331 15,400 -900 Descending Boston Center
09:19AM 42.4614 -74.9900 253° West 300 345 14,300 -1,320 Descending Boston Center
09:20AM 42.4339 -75.1014 252° West 313 360 12,900 -1,440 Descending Boston Center
09:22AM 42.3862 -75.2415 245° Southwest  Level FlightAware Approximate
09:29AM 42.2204 -75.8889 246° West  Level FlightAware Approximate
09:30AM 42.2000 -75.9667 270° West  Level FlightAware Approximate
09:31AM 42.2084 -75.9796 270° West  Level Estimated
09:32AM 42.2084 -75.9796 270° West  Level Estimated
09:33AM 42.2084 -75.9796 270° West  Level Estimated
09:34AM 42.2084 -75.9796 270° West  Level Estimated
09:35AM 42.2084 -75.9796 270° West  Level Estimated
09:36AM 42.2084 -75.9796 270° West  Level Estimated